Time;durP1;ratioP1;P1;durP2;ratioP2;P2;SDS_P1;SDS_P2;PMS_P1;PMS_P2;Temp;Humidity;BMP_temperature;BMP_pressure;BME280_temperature;BME280_humidity;BME280_pressure;Samples;Min_cycle;Max_cycle;Signal;HPM_P1;HPM_P2
2023/05/30 00:02:02;;;;;;;16.17;3.42;;;;;;;;;;6334147;22;20391;-94
2023/05/30 00:04:30;;;;;;;15.38;4.75;;;;;;;;;;6308160;22;20126;-93
2023/05/30 00:06:59;;;;;;;10.82;3.22;;;;;;;;;;6308629;22;20447;-92
2023/05/30 00:09:25;;;;;;;9.52;4.05;;;;;;;;;;6308615;22;20026;-91
2023/05/30 00:11:54;;;;;;;12.35;3.55;;;;;;;;;;6307296;22;20659;-92
2023/05/30 00:14:26;;;;;;;10.02;3.38;;;;;;;;;;6309189;22;20033;-92
2023/05/30 00:16:53;;;;;;;11.13;3.30;;;;;;;;;;6308284;22;20068;-92
2023/05/30 00:19:20;;;;;;;12.65;2.95;;;;;;;;;;6335840;22;20021;-92
2023/05/30 00:21:47;;;;;;;11.80;3.10;;;;;;;;;;6307878;22;20017;-91
2023/05/30 00:24:26;;;;;;;16.13;3.05;;;;;;;;;;6334443;22;20039;-91
2023/05/30 00:26:55;;;;;;;17.30;3.70;;;;;;;;;;6331795;22;20062;-92
2023/05/30 00:29:34;;;;;;;12.68;3.30;;;;;;;;;;6332812;22;20345;-91
2023/05/30 00:32:11;;;;;;;16.65;3.20;;;;;;;;;;6335616;22;20038;-92
2023/05/30 00:34:52;;;;;;;14.05;3.20;;;;;;;;;;6309995;22;20315;-91
2023/05/30 00:37:18;;;;;;;10.57;3.47;;;;;;;;;;6333713;22;20006;-92
2023/05/30 00:39:44;;;;;;;11.13;3.35;;;;;;;;;;6309279;22;20021;-93
2023/05/30 00:42:44;;;;;;;17.02;3.72;;;;;;;;;;6307632;22;20038;-93
2023/05/30 00:45:10;;;;;;;12.70;3.42;;;;;;;;;;6334308;22;20052;-92
2023/05/30 00:47:37;;;;;;;13.68;2.88;;;;;;;;;;6307658;22;20011;-92
2023/05/30 00:50:07;;;;;;;7.68;3.10;;;;;;;;;;6334357;22;20030;-92
2023/05/30 00:52:33;;;;;;;12.73;2.92;;;;;;;;;;6308513;22;20034;-92
2023/05/30 00:55:02;;;;;;;15.80;2.83;;;;;;;;;;6335151;22;20034;-94
2023/05/30 00:57:29;;;;;;;13.52;2.95;;;;;;;;;;6309818;22;20454;-92
2023/05/30 00:59:57;;;;;;;13.10;2.83;;;;;;;;;;6335777;22;20488;-93
2023/05/30 01:02:24;;;;;;;11.43;3.20;;;;;;;;;;6335822;22;20306;-93
2023/05/30 01:04:55;;;;;;;11.60;2.80;;;;;;;;;;6336923;22;20452;-93
2023/05/30 01:07:21;;;;;;;12.50;2.90;;;;;;;;;;6335589;22;20006;-93
2023/05/30 01:09:48;;;;;;;9.15;3.70;;;;;;;;;;6362562;22;20026;-93
2023/05/30 01:12:20;;;;;;;8.27;2.70;;;;;;;;;;6307332;22;20014;-92
2023/05/30 01:15:03;;;;;;;12.82;2.92;;;;;;;;;;6334930;22;20432;-92
2023/05/30 01:17:30;;;;;;;13.52;3.35;;;;;;;;;;6334937;22;20003;-92
2023/05/30 01:20:07;;;;;;;13.35;3.63;;;;;;;;;;6335447;22;20006;-92
2023/05/30 01:22:39;;;;;;;16.10;3.30;;;;;;;;;;6336853;22;20014;-92
2023/05/30 01:25:08;;;;;;;16.95;3.47;;;;;;;;;;6335816;22;20034;-93
2023/05/30 01:27:44;;;;;;;18.33;5.03;;;;;;;;;;6334938;22;20003;-94
2023/05/30 01:30:10;;;;;;;;;;;;;;;;;;6335702;22;20002;-93
2023/05/30 01:32:37;;;;;;;10.00;3.10;;;;;;;;;;6335594;22;19937;-92
2023/05/30 01:35:03;;;;;;;12.18;3.65;;;;;;;;;;6336338;22;20029;-92
2023/05/30 01:37:36;;;;;;;17.70;3.35;;;;;;;;;;6332836;22;20017;-92
2023/05/30 01:40:04;;;;;;;20.20;4.28;;;;;;;;;;6307385;22;20395;-93
2023/05/30 01:42:36;;;;;;;21.00;3.63;;;;;;;;;;6310542;22;20428;-93
2023/05/30 01:45:02;;;;;;;15.32;3.35;;;;;;;;;;6334367;22;20044;-93
2023/05/30 01:47:33;;;;;;;12.35;3.30;;;;;;;;;;6336040;22;19999;-93
2023/05/30 01:50:11;;;;;;;19.25;4.18;;;;;;;;;;6335824;22;20002;-95
2023/05/30 01:52:42;;;;;;;12.63;3.58;;;;;;;;;;6336207;22;20089;-94
2023/05/30 01:55:09;;;;;;;24.25;4.88;;;;;;;;;;6310436;22;20006;-93
2023/05/30 01:57:40;;;;;;;11.32;3.90;;;;;;;;;;6308988;22;20021;-94
2023/05/30 02:00:07;;;;;;;11.35;3.97;;;;;;;;;;6334966;22;20654;-93
2023/05/30 02:02:33;;;;;;;14.82;4.03;;;;;;;;;;6307736;22;20026;-93
2023/05/30 02:05:09;;;;;;;;;;;;;;;;;;;;;
2023/05/30 02:07:36;;;;;;;12.77;3.67;;;;;;;;;;6334612;22;20091;-93
2023/05/30 02:10:10;;;;;;;15.85;3.85;;;;;;;;;;6309340;22;20022;-93
2023/05/30 02:12:37;;;;;;;12.25;3.78;;;;;;;;;;6333309;22;20013;-93
2023/05/30 02:15:03;;;;;;;14.07;3.35;;;;;;;;;;6308851;22;20011;-92
2023/05/30 02:17:30;;;;;;;15.07;3.65;;;;;;;;;;6308668;22;20095;-91
2023/05/30 02:19:59;;;;;;;13.02;3.80;;;;;;;;;;6336215;22;20442;-92
2023/05/30 02:22:25;;;;;;;15.95;4.10;;;;;;;;;;6309238;22;20381;-92
2023/05/30 02:25:12;;;;;;;14.65;4.30;;;;;;;;;;6336179;22;20029;-93
2023/05/30 02:27:42;;;;;;;14.65;3.25;;;;;;;;;;6329028;22;20018;-93
2023/05/30 02:30:09;;;;;;;18.98;3.80;;;;;;;;;;6310858;22;20003;-92
2023/05/30 02:32:36;;;;;;;12.60;3.30;;;;;;;;;;6335044;22;20006;-91
2023/05/30 02:35:03;;;;;;;10.02;3.50;;;;;;;;;;6310064;22;20090;-92
2023/05/30 02:37:30;;;;;;;15.27;4.15;;;;;;;;;;6336213;22;20003;-92
2023/05/30 02:39:59;;;;;;;17.90;3.78;;;;;;;;;;6310831;22;20014;-92
2023/05/30 02:42:25;;;;;;;20.27;4.40;;;;;;;;;;6311713;22;20010;-92
2023/05/30 02:44:52;;;;;;;15.27;3.67;;;;;;;;;;6310091;22;20032;-92
2023/05/30 02:47:19;;;;;;;16.10;3.42;;;;;;;;;;6311188;22;20426;-92
2023/05/30 02:49:45;;;;;;;25.17;3.55;;;;;;;;;;6337027;22;20060;-93
2023/05/30 02:52:14;;;;;;;10.48;3.22;;;;;;;;;;6310123;22;20498;-91
2023/05/30 02:54:40;;;;;;;15.68;4.18;;;;;;;;;;6311423;22;20019;-92
2023/05/30 02:57:07;;;;;;;26.15;5.00;;;;;;;;;;6312610;22;20014;-93
2023/05/30 02:59:37;;;;;;;15.48;4.72;;;;;;;;;;6340525;22;20003;-92
2023/05/30 03:02:03;;;;;;;21.00;4.07;;;;;;;;;;6340776;22;20006;-91
2023/05/30 03:04:29;;;;;;;13.35;3.50;;;;;;;;;;6313193;22;20002;-91
2023/05/30 03:06:55;;;;;;;25.88;4.70;;;;;;;;;;6339862;22;20034;-91
2023/05/30 03:09:22;;;;;;;17.58;4.53;;;;;;;;;;6313924;22;20019;-92
2023/05/30 03:11:49;;;;;;;16.48;3.90;;;;;;;;;;6337756;22;20010;-91
2023/05/30 03:14:15;;;;;;;13.52;4.55;;;;;;;;;;6338041;22;20078;-92
2023/05/30 03:16:42;;;;;;;13.07;3.67;;;;;;;;;;6336841;22;20011;-91
2023/05/30 03:19:12;;;;;;;16.60;3.65;;;;;;;;;;6309779;22;20014;-92
2023/05/30 03:21:38;;;;;;;16.40;4.03;;;;;;;;;;6309555;22;20017;-91
2023/05/30 03:24:05;;;;;;;19.50;4.05;;;;;;;;;;6310231;22;20462;-91
2023/05/30 03:26:34;;;;;;;12.18;3.88;;;;;;;;;;6308157;22;20003;-91
2023/05/30 03:29:01;;;;;;;14.80;4.20;;;;;;;;;;6334667;22;20003;-91
2023/05/30 03:31:29;;;;;;;17.05;3.80;;;;;;;;;;6308271;22;20448;-92
2023/05/30 03:33:55;;;;;;;13.02;4.47;;;;;;;;;;6309779;22;20093;-93
2023/05/30 03:36:35;;;;;;;22.17;4.00;;;;;;;;;;6308085;22;20006;-92
2023/05/30 03:39:01;;;;;;;22.33;3.95;;;;;;;;;;6309663;22;20596;-92
2023/05/30 03:41:27;;;;;;;19.45;3.67;;;;;;;;;;6335244;22;20011;-92
2023/05/30 03:43:53;;;;;;;16.30;4.53;;;;;;;;;;6309401;22;20030;-91
2023/05/30 03:46:21;;;;;;;18.50;4.30;;;;;;;;;;6335032;22;20034;-93
2023/05/30 03:48:50;;;;;;;21.75;4.30;;;;;;;;;;6335833;22;20099;-93
2023/05/30 03:51:17;;;;;;;14.68;3.67;;;;;;;;;;6312563;22;20007;-92
2023/05/30 03:54:00;;;;;;;14.68;3.72;;;;;;;;;;6309366;22;20034;-92
2023/05/30 03:56:26;;;;;;;16.73;4.47;;;;;;;;;;6311353;22;20010;-92
2023/05/30 03:58:54;;;;;;;25.65;3.63;;;;;;;;;;6309537;22;20083;-91
2023/05/30 04:01:20;;;;;;;16.90;3.75;;;;;;;;;;6310145;22;20014;-92
2023/05/30 04:03:53;;;;;;;18.65;4.05;;;;;;;;;;6336227;22;20007;-92
2023/05/30 04:06:20;;;;;;;16.08;3.60;;;;;;;;;;6310119;22;20007;-90
2023/05/30 04:08:47;;;;;;;22.20;3.95;;;;;;;;;;6336355;22;20078;-89
2023/05/30 04:11:14;;;;;;;18.48;4.03;;;;;;;;;;6256765;22;20019;-90
2023/05/30 04:13:41;;;;;;;12.68;5.28;;;;;;;;;;6253757;22;20270;-92
2023/05/30 04:16:14;;;;;;;23.90;4.40;;;;;;;;;;6252670;22;20011;-93
2023/05/30 04:18:44;;;;;;;15.85;4.05;;;;;;;;;;6277810;22;20003;-92
2023/05/30 04:21:12;;;;;;;16.77;4.50;;;;;;;;;;6253082;22;20011;-91
2023/05/30 04:23:41;;;;;;;16.55;4.00;;;;;;;;;;6278335;22;20483;-92
2023/05/30 04:26:11;;;;;;;12.63;3.95;;;;;;;;;;6253034;22;20004;-93
2023/05/30 04:28:44;;;;;;;8.85;3.10;;;;;;;;;;6276349;22;20019;-92
2023/05/30 04:31:10;;;;;;;11.60;3.42;;;;;;;;;;6277796;22;20119;-92
2023/05/30 04:33:38;;;;;;;21.15;3.85;;;;;;;;;;6277448;22;20026;-92
2023/05/30 04:36:18;;;;;;;13.55;3.50;;;;;;;;;;6252506;22;20008;-93
2023/05/30 04:38:47;;;;;;;14.07;3.45;;;;;;;;;;6305950;22;20272;-92
2023/05/30 04:41:27;;;;;;;16.25;3.80;;;;;;;;;;6253696;22;20003;-92
2023/05/30 04:43:57;;;;;;;14.38;3.83;;;;;;;;;;6253509;22;20088;-92
2023/05/30 04:46:27;;;;;;;20.88;6.00;;;;;;;;;;6255949;22;20034;-93
2023/05/30 04:48:58;;;;;;;16.98;3.72;;;;;;;;;;6278507;22;20345;-91
2023/05/30 04:51:25;;;;;;;13.55;3.92;;;;;;;;;;6279326;22;20371;-92
2023/05/30 04:54:02;;;;;;;12.65;4.53;;;;;;;;;;6254156;22;20015;-92
2023/05/30 04:56:29;;;;;;;17.90;4.32;;;;;;;;;;6278625;22;19999;-92
2023/05/30 04:58:57;;;;;;;12.57;3.35;;;;;;;;;;6277700;22;20403;-93
2023/05/30 05:01:24;;;;;;;16.73;3.72;;;;;;;;;;6277699;22;20018;-93
2023/05/30 05:03:51;;;;;;;12.88;3.33;;;;;;;;;;6254900;22;20014;-92
2023/05/30 05:06:20;;;;;;;13.52;3.55;;;;;;;;;;6252708;22;20008;-93
2023/05/30 05:08:46;;;;;;;9.82;2.92;;;;;;;;;;6253990;22;20084;-92
2023/05/30 05:11:13;;;;;;;14.40;3.30;;;;;;;;;;6253706;22;20007;-93
2023/05/30 05:13:44;;;;;;;8.25;2.92;;;;;;;;;;6250147;22;20042;-91
2023/05/30 05:16:10;;;;;;;18.15;3.75;;;;;;;;;;6253504;22;20015;-90
2023/05/30 05:18:36;;;;;;;10.30;3.22;;;;;;;;;;6252030;22;20027;-91
2023/05/30 05:21:02;;;;;;;10.52;3.47;;;;;;;;;;6252529;22;20034;-91
2023/05/30 05:24:01;;;;;;;6.35;2.58;;;;;;;;;;6252792;22;20141;-92
2023/05/30 05:26:27;;;;;;;8.35;2.92;;;;;;;;;;6278530;22;20428;-92
2023/05/30 05:28:55;;;;;;;14.43;4.05;;;;;;;;;;6252807;22;20015;-92
2023/05/30 05:31:21;;;;;;;10.20;2.92;;;;;;;;;;6278172;22;20007;-91
2023/05/30 05:33:48;;;;;;;9.68;3.60;;;;;;;;;;6277930;22;20011;-91
2023/05/30 05:36:15;;;;;;;7.75;2.92;;;;;;;;;;6253095;22;20456;-92
2023/05/30 05:38:50;;;;;;;14.60;3.15;;;;;;;;;;6252713;22;20007;-91
2023/05/30 05:41:17;;;;;;;7.30;2.97;;;;;;;;;;6250920;22;20015;-92
2023/05/30 05:43:45;;;;;;;10.02;3.58;;;;;;;;;;6251943;22;20556;-92
2023/05/30 05:46:15;;;;;;;20.08;3.80;;;;;;;;;;6252172;22;20437;-92
2023/05/30 05:48:42;;;;;;;5.03;2.35;;;;;;;;;;6250871;22;20004;-93
2023/05/30 05:51:09;;;;;;;7.70;2.67;;;;;;;;;;6276182;22;20235;-94
2023/05/30 05:53:54;;;;;;;11.15;2.88;;;;;;;;;;6251368;22;20388;-94
2023/05/30 05:56:29;;;;;;;8.45;3.00;;;;;;;;;;6250718;22;20018;-95
2023/05/30 05:58:56;;;;;;;11.95;2.88;;;;;;;;;;6251238;22;20053;-92
2023/05/30 06:01:24;;;;;;;17.13;3.25;;;;;;;;;;6250750;22;20026;-94
2023/05/30 06:03:51;;;;;;;10.02;2.70;;;;;;;;;;6277156;22;20007;-94
2023/05/30 06:06:17;;;;;;;13.32;3.53;;;;;;;;;;6251216;22;20004;-94
2023/05/30 06:08:45;;;;;;;7.75;2.55;;;;;;;;;;6279103;22;20017;-94
2023/05/30 06:11:15;;;;;;;14.98;2.80;;;;;;;;;;6278661;22;20007;-94
2023/05/30 06:13:41;;;;;;;13.32;2.42;;;;;;;;;;6248868;22;20015;-94
2023/05/30 06:16:07;;;;;;;12.02;3.10;;;;;;;;;;6249036;22;20011;-93
2023/05/30 06:18:33;;;;;;;8.60;2.40;;;;;;;;;;6250932;22;20330;-93
2023/05/30 06:21:00;;;;;;;6.18;2.40;;;;;;;;;;6277245;22;20011;-94
2023/05/30 06:23:27;;;;;;;11.30;2.35;;;;;;;;;;6276298;22;20468;-93
2023/05/30 06:25:53;;;;;;;13.75;3.63;;;;;;;;;;6251192;22;20007;-93
2023/05/30 06:28:22;;;;;;;10.55;3.00;;;;;;;;;;6250965;22;20003;-94
2023/05/30 06:30:48;;;;;;;8.82;2.53;;;;;;;;;;6251406;22;20298;-94
2023/05/30 06:33:15;;;;;;;3.75;2.20;;;;;;;;;;6249873;22;20007;-93
2023/05/30 06:35:41;;;;;;;6.43;2.63;;;;;;;;;;6252957;22;20007;-92
2023/05/30 06:38:07;;;;;;;9.23;2.55;;;;;;;;;;6304374;22;20003;-93
2023/05/30 06:40:36;;;;;;;5.75;2.28;;;;;;;;;;6278037;22;20429;-93
2023/05/30 06:43:04;;;;;;;8.23;2.38;;;;;;;;;;6250634;22;20053;-94
2023/05/30 06:45:31;;;;;;;7.85;2.47;;;;;;;;;;6252243;22;20338;-93
2023/05/30 06:48:01;;;;;;;9.75;2.50;;;;;;;;;;6278043;22;20472;-93
2023/05/30 06:50:27;;;;;;;8.25;2.90;;;;;;;;;;6252595;22;20203;-92
2023/05/30 06:52:54;;;;;;;10.88;2.47;;;;;;;;;;6279476;22;20007;-93
2023/05/30 06:55:44;;;;;;;7.90;2.30;;;;;;;;;;6253588;22;20326;-91
2023/05/30 06:58:18;;;;;;;11.65;2.20;;;;;;;;;;6260130;22;20823;-90
2023/05/30 07:00:51;;;;;;;6.93;2.22;;;;;;;;;;6282396;22;20437;-91
2023/05/30 07:03:24;;;;;;;12.38;2.35;;;;;;;;;;6255288;22;20071;-91
2023/05/30 07:05:56;;;;;;;8.18;2.53;;;;;;;;;;6256810;22;20031;-91
2023/05/30 07:08:25;;;;;;;6.32;2.05;;;;;;;;;;6279434;22;20014;-92
2023/05/30 07:10:52;;;;;;;10.77;2.00;;;;;;;;;;6306609;22;20487;-92
2023/05/30 07:13:18;;;;;;;3.78;1.88;;;;;;;;;;6332369;22;20011;-92
2023/05/30 07:15:44;;;;;;;4.20;1.77;;;;;;;;;;6310001;22;20014;-91
2023/05/30 07:18:11;;;;;;;7.40;2.10;;;;;;;;;;6311480;22;20007;-91
2023/05/30 07:20:47;;;;;;;6.70;2.28;;;;;;;;;;6336921;22;20007;-91
2023/05/30 07:23:20;;;;;;;5.22;1.98;;;;;;;;;;6310918;22;20011;-91
2023/05/30 07:25:46;;;;;;;10.65;2.47;;;;;;;;;;6339995;22;20003;-91
2023/05/30 07:28:15;;;;;;;10.13;2.22;;;;;;;;;;6313296;22;20010;-91
2023/05/30 07:31:02;;;;;;;8.15;2.88;;;;;;;;;;6340113;22;20011;-91
2023/05/30 07:33:32;;;;;;;10.95;2.10;;;;;;;;;;6340971;22;20002;-90
2023/05/30 07:35:59;;;;;;;7.45;2.30;;;;;;;;;;6341941;22;20010;-89
2023/05/30 07:38:44;;;;;;;7.30;2.13;;;;;;;;;;6340307;22;20011;-88
2023/05/30 07:41:18;;;;;;;10.60;2.40;;;;;;;;;;6337125;22;20002;-89
2023/05/30 07:43:54;;;;;;;4.70;2.00;;;;;;;;;;6315873;22;20014;-91
2023/05/30 07:46:22;;;;;;;;;;;;;;;;;;6340398;22;20010;-90
2023/05/30 07:48:51;;;;;;;8.10;1.95;;;;;;;;;;6339481;22;19903;-91
2023/05/30 07:51:22;;;;;;;5.32;2.03;;;;;;;;;;6315325;22;20328;-90
2023/05/30 07:53:48;;;;;;;6.78;1.95;;;;;;;;;;6340082;22;20216;-90
2023/05/30 07:56:15;;;;;;;4.57;1.73;;;;;;;;;;6313195;22;20106;-89
2023/05/30 07:58:42;;;;;;;4.53;1.77;;;;;;;;;;6312236;22;20566;-90
2023/05/30 08:01:08;;;;;;;7.15;1.80;;;;;;;;;;6309359;22;20081;-90
2023/05/30 08:03:34;;;;;;;5.22;1.73;;;;;;;;;;6366410;22;20013;-90
2023/05/30 08:06:02;;;;;;;9.77;2.47;;;;;;;;;;6340344;22;19999;-91
2023/05/30 08:08:29;;;;;;;4.47;1.42;;;;;;;;;;6315578;22;20006;-91
2023/05/30 08:10:56;;;;;;;4.03;1.60;;;;;;;;;;6341363;22;20046;-91
2023/05/30 08:13:38;;;;;;;4.75;2.10;;;;;;;;;;6341270;22;20007;-86
2023/05/30 08:16:09;;;;;;;7.40;2.88;;;;;;;;;;6335229;22;20034;-87
2023/05/30 08:18:50;;;;;;;6.50;2.03;;;;;;;;;;6333905;22;20397;-86
2023/05/30 08:21:19;;;;;;;2.20;1.65;;;;;;;;;;6310753;22;20022;-87
2023/05/30 08:23:46;;;;;;;7.40;1.65;;;;;;;;;;6308142;22;20417;-86
2023/05/30 08:26:12;;;;;;;4.78;1.45;;;;;;;;;;6308903;22;20013;-87
2023/05/30 08:28:38;;;;;;;4.57;1.38;;;;;;;;;;6307987;22;20436;-86
2023/05/30 08:31:08;;;;;;;4.18;1.40;;;;;;;;;;6331941;22;20006;-87
2023/05/30 08:33:34;;;;;;;3.15;1.60;;;;;;;;;;6333289;22;20032;-86
2023/05/30 08:36:02;;;;;;;4.80;1.55;;;;;;;;;;6334248;22;20102;-87
2023/05/30 08:38:29;;;;;;;2.65;1.23;;;;;;;;;;6306623;22;20427;-86
2023/05/30 08:40:55;;;;;;;3.70;1.17;;;;;;;;;;6306942;22;20014;-86
2023/05/30 08:43:21;;;;;;;3.53;1.23;;;;;;;;;;6332653;22;20081;-86
2023/05/30 08:45:47;;;;;;;2.78;1.55;;;;;;;;;;6333761;22;20002;-86
2023/05/30 08:48:14;;;;;;;5.78;1.75;;;;;;;;;;6334988;22;20034;-86
2023/05/30 08:50:42;;;;;;;3.83;1.15;;;;;;;;;;6306102;22;20413;-86
2023/05/30 08:53:09;;;;;;;10.82;1.42;;;;;;;;;;6308419;22;20029;-86
2023/05/30 08:55:50;;;;;;;8.85;1.50;;;;;;;;;;6306410;22;20069;-86
2023/05/30 08:58:22;;;;;;;4.57;0.80;;;;;;;;;;6327360;22;20467;-86
2023/05/30 09:00:49;;;;;;;4.88;0.85;;;;;;;;;;6332487;22;20486;-86
2023/05/30 09:03:20;;;;;;;0.85;0.70;;;;;;;;;;6332742;22;20484;-86
2023/05/30 09:05:56;;;;;;;1.05;0.52;;;;;;;;;;6332155;22;20415;-86
2023/05/30 09:08:25;;;;;;;1.33;0.70;;;;;;;;;;6332124;22;20059;-86
2023/05/30 09:10:52;;;;;;;1.90;0.80;;;;;;;;;;6332907;22;20482;-86
2023/05/30 09:13:19;;;;;;;0.73;0.50;;;;;;;;;;6308453;22;20426;-86
2023/05/30 09:15:45;;;;;;;1.73;1.05;;;;;;;;;;6306619;22;20007;-85
2023/05/30 09:18:12;;;;;;;8.38;0.85;;;;;;;;;;6334125;22;20017;-86
2023/05/30 09:20:55;;;;;;;2.42;0.70;;;;;;;;;;6336158;22;20078;-86
2023/05/30 09:23:22;;;;;;;1.45;0.50;;;;;;;;;;6332991;22;20112;-86
2023/05/30 09:25:49;;;;;;;1.48;0.50;;;;;;;;;;6331903;22;20003;-86
2023/05/30 09:28:15;;;;;;;1.55;0.52;;;;;;;;;;6328974;22;20009;-87
2023/05/30 09:31:01;;;;;;;2.38;0.63;;;;;;;;;;6331231;22;20508;-86
2023/05/30 09:33:34;;;;;;;;;;;;;;;;;;6331024;22;20352;-85
2023/05/30 09:36:00;;;;;;;1.67;0.70;;;;;;;;;;6334162;22;19950;-86
2023/05/30 09:38:26;;;;;;;3.60;0.70;;;;;;;;;;6306597;22;20476;-86
2023/05/30 09:40:56;;;;;;;1.58;0.80;;;;;;;;;;6306688;22;20163;-86
2023/05/30 09:43:34;;;;;;;2.72;0.60;;;;;;;;;;6305808;22;20369;-86
2023/05/30 09:46:01;;;;;;;1.20;0.80;;;;;;;;;;6334126;22;19995;-86
2023/05/30 09:48:40;;;;;;;8.40;1.13;;;;;;;;;;6336497;22;20440;-85
2023/05/30 09:51:14;;;;;;;1.85;0.50;;;;;;;;;;6335766;22;20544;-86
2023/05/30 09:53:53;;;;;;;1.48;0.50;;;;;;;;;;6337097;22;20037;-87
2023/05/30 09:56:20;;;;;;;0.77;0.63;;;;;;;;;;6334628;22;20007;-86
2023/05/30 09:58:52;;;;;;;2.05;0.77;;;;;;;;;;6309362;22;20022;-86
2023/05/30 10:01:18;;;;;;;2.10;0.77;;;;;;;;;;6310256;22;20033;-87
2023/05/30 10:03:45;;;;;;;1.08;0.60;;;;;;;;;;6307481;22;20479;-86
2023/05/30 10:06:16;;;;;;;1.80;0.60;;;;;;;;;;6332366;22;19999;-86
2023/05/30 10:08:46;;;;;;;2.85;0.63;;;;;;;;;;6334963;22;20600;-87
2023/05/30 10:11:13;;;;;;;0.85;0.65;;;;;;;;;;6334411;22;20021;-86
2023/05/30 10:13:40;;;;;;;1.10;0.60;;;;;;;;;;6305517;22;20038;-87
2023/05/30 10:16:15;;;;;;;2.30;0.80;;;;;;;;;;6305995;22;20498;-88
2023/05/30 10:18:54;;;;;;;0.63;0.50;;;;;;;;;;6333636;22;20021;-88
2023/05/30 10:21:22;;;;;;;1.10;0.50;;;;;;;;;;6333836;22;20059;-88
2023/05/30 10:23:49;;;;;;;1.27;0.80;;;;;;;;;;6333312;22;20429;-87
2023/05/30 10:26:16;;;;;;;2.35;0.60;;;;;;;;;;6333947;22;20010;-88
2023/05/30 10:28:44;;;;;;;1.40;0.70;;;;;;;;;;6336122;22;20074;-87
2023/05/30 10:31:12;;;;;;;2.22;0.70;;;;;;;;;;6334229;22;20006;-87
2023/05/30 10:33:40;;;;;;;2.22;0.75;;;;;;;;;;6337451;22;20056;-87
2023/05/30 10:36:07;;;;;;;1.45;1.05;;;;;;;;;;6336834;22;20015;-87
2023/05/30 10:38:39;;;;;;;1.05;0.85;;;;;;;;;;6338651;22;20005;-88
2023/05/30 10:41:20;;;;;;;2.08;0.90;;;;;;;;;;6337790;22;20445;-87
2023/05/30 10:43:53;;;;;;;2.50;1.17;;;;;;;;;;6336059;22;20018;-87
2023/05/30 10:46:34;;;;;;;1.95;0.80;;;;;;;;;;6335092;22;20058;-87
2023/05/30 10:49:04;;;;;;;0.63;0.55;;;;;;;;;;6333898;22;20056;-86
2023/05/30 10:51:30;;;;;;;1.88;0.82;;;;;;;;;;6335470;22;20006;-87
2023/05/30 10:53:58;;;;;;;1.15;0.80;;;;;;;;;;6336563;22;20546;-87
2023/05/30 10:56:27;;;;;;;0.80;0.70;;;;;;;;;;6309587;22;20022;-87
2023/05/30 10:58:54;;;;;;;0.70;0.63;;;;;;;;;;6334083;22;20007;-87
2023/05/30 11:01:28;;;;;;;1.40;0.68;;;;;;;;;;6333812;22;20003;-87
2023/05/30 11:04:04;;;;;;;2.30;0.95;;;;;;;;;;6334276;22;20002;-87
2023/05/30 11:06:35;;;;;;;0.80;0.80;;;;;;;;;;6335287;22;20059;-86
2023/05/30 11:09:08;;;;;;;1.00;0.90;;;;;;;;;;6335690;22;20048;-87
2023/05/30 11:11:41;;;;;;;2.75;0.98;;;;;;;;;;6333719;22;20325;-87
2023/05/30 11:14:11;;;;;;;1.80;0.80;;;;;;;;;;6334551;22;20454;-86
2023/05/30 11:16:56;;;;;;;1.65;1.00;;;;;;;;;;6309227;22;20058;-86
2023/05/30 11:19:35;;;;;;;2.03;1.08;;;;;;;;;;6334431;22;20003;-87
2023/05/30 11:22:02;;;;;;;2.00;1.00;;;;;;;;;;6335906;22;20025;-87
2023/05/30 11:24:30;;;;;;;2.70;1.30;;;;;;;;;;6335303;22;20053;-86
2023/05/30 11:26:57;;;;;;;1.95;1.10;;;;;;;;;;6335556;22;20013;-87
2023/05/30 11:29:29;;;;;;;3.85;1.10;;;;;;;;;;6310279;22;20014;-87
2023/05/30 11:31:56;;;;;;;0.85;0.80;;;;;;;;;;6336957;22;20015;-87
2023/05/30 11:34:24;;;;;;;2.25;1.10;;;;;;;;;;6337525;22;20395;-86
2023/05/30 11:37:14;;;;;;;5.05;1.10;;;;;;;;;;6337740;22;20006;-87
2023/05/30 11:39:38;;;;;;;1.35;1.10;;;;;;;;;;6336002;22;20031;-87
2023/05/30 11:42:05;;;;;;;3.75;0.90;;;;;;;;;;6336829;22;20066;-87
2023/05/30 11:44:33;;;;;;;2.05;0.73;;;;;;;;;;6335955;22;20013;-87
2023/05/30 11:47:00;;;;;;;1.05;0.73;;;;;;;;;;6313205;22;20049;-87
2023/05/30 11:49:29;;;;;;;1.73;0.82;;;;;;;;;;6342917;22;20308;-87
2023/05/30 11:51:56;;;;;;;2.17;1.23;;;;;;;;;;6316694;22;20026;-87
2023/05/30 11:54:23;;;;;;;2.17;0.73;;;;;;;;;;6343263;22;20028;-87
2023/05/30 11:56:50;;;;;;;1.17;0.90;;;;;;;;;;6340314;22;19999;-87
2023/05/30 11:59:27;;;;;;;0.75;0.75;;;;;;;;;;6367646;22;20006;-87
2023/05/30 12:01:54;;;;;;;3.15;1.00;;;;;;;;;;6339331;22;20009;-87
2023/05/30 12:04:31;;;;;;;1.73;0.98;;;;;;;;;;6340170;22;20007;-87
2023/05/30 12:07:09;;;;;;;3.88;0.75;;;;;;;;;;6341753;22;20021;-87
2023/05/30 12:09:42;;;;;;;2.30;0.70;;;;;;;;;;6341019;22;20336;-87
2023/05/30 12:12:11;;;;;;;0.98;0.88;;;;;;;;;;6279693;22;20018;-88
2023/05/30 12:14:49;;;;;;;5.45;1.02;;;;;;;;;;6282423;22;20062;-88
2023/05/30 12:17:18;;;;;;;0.93;0.90;;;;;;;;;;6282841;22;20496;-87
2023/05/30 12:19:45;;;;;;;1.63;0.93;;;;;;;;;;6283091;22;20003;-89
2023/05/30 12:22:24;;;;;;;0.95;0.85;;;;;;;;;;6258353;22;20015;-86
2023/05/30 12:24:57;;;;;;;2.70;1.63;;;;;;;;;;6284122;22;19999;-86
2023/05/30 12:27:27;;;;;;;3.42;0.93;;;;;;;;;;6258724;22;20433;-88
2023/05/30 12:29:57;;;;;;;1.90;1.10;;;;;;;;;;6258173;22;20072;-87
2023/05/30 12:32:24;;;;;;;2.75;0.82;;;;;;;;;;6283662;22;20326;-87
2023/05/30 12:34:50;;;;;;;1.15;1.00;;;;;;;;;;6256789;22;20022;-87
2023/05/30 12:37:18;;;;;;;0.60;0.60;;;;;;;;;;6258816;22;20011;-86
2023/05/30 12:40:06;;;;;;;4.88;1.30;;;;;;;;;;6282957;22;20007;-86
2023/05/30 12:42:43;;;;;;;1.05;0.95;;;;;;;;;;6283663;22;20007;-87
2023/05/30 12:45:10;;;;;;;1.75;1.05;;;;;;;;;;6282842;22;20074;-88
2023/05/30 12:47:36;;;;;;;3.10;1.20;;;;;;;;;;6259081;22;20223;-88
2023/05/30 12:50:03;;;;;;;1.60;0.90;;;;;;;;;;6256489;22;20070;-88
2023/05/30 12:52:30;;;;;;;3.67;0.90;;;;;;;;;;6312195;22;19999;-89
2023/05/30 12:54:56;;;;;;;4.72;1.10;;;;;;;;;;6283827;22;20003;-88
2023/05/30 12:57:27;;;;;;;3.10;0.90;;;;;;;;;;6283959;22;20011;-88
2023/05/30 12:59:53;;;;;;;3.63;1.17;;;;;;;;;;6282893;22;20009;-88
2023/05/30 13:02:24;;;;;;;1.08;0.88;;;;;;;;;;6258955;22;20012;-89
2023/05/30 13:04:54;;;;;;;0.95;0.80;;;;;;;;;;6283404;22;20007;-89
2023/05/30 13:07:37;;;;;;;1.00;0.90;;;;;;;;;;6257387;22;20007;-89
2023/05/30 13:10:03;;;;;;;3.58;1.02;;;;;;;;;;6270739;22;20094;-89
2023/05/30 13:12:32;;;;;;;1.95;0.80;;;;;;;;;;6288204;22;20011;-89
2023/05/30 13:15:01;;;;;;;1.38;1.00;;;;;;;;;;6289053;22;20042;-89
2023/05/30 13:17:27;;;;;;;0.70;0.70;;;;;;;;;;6289844;22;20032;-89
2023/05/30 13:19:55;;;;;;;1.50;0.80;;;;;;;;;;6344195;22;20007;-89
2023/05/30 13:22:26;;;;;;;2.25;0.90;;;;;;;;;;6255745;22;20008;-91
2023/05/30 13:25:21;;;;;;;3.05;1.02;;;;;;;;;;6224391;23;20018;-90
2023/05/30 13:27:50;;;;;;;4.50;1.80;;;;;;;;;;6256729;22;20028;-91
2023/05/30 13:30:25;;;;;;;2.45;1.10;;;;;;;;;;6234565;22;20022;-92
2023/05/30 13:32:52;;;;;;;2.55;0.90;;;;;;;;;;6253650;22;20035;-92
2023/05/30 13:35:18;;;;;;;1.30;0.98;;;;;;;;;;6255472;22;20056;-91
2023/05/30 13:38:17;;;;;;;1.88;1.20;;;;;;;;;;6255064;22;20111;-91
2023/05/30 13:43:38;;;;;;;4.15;1.20;;;;;;;;;;6254564;22;20008;-92
2023/05/30 13:46:11;;;;;;;1.90;1.13;;;;;;;;;;6250640;22;20034;-91
2023/05/30 13:48:40;;;;;;;2.15;1.13;;;;;;;;;;6227769;22;20004;-92
2023/05/30 13:51:08;;;;;;;3.80;1.10;;;;;;;;;;6230892;22;20035;-91
2023/05/30 13:54:26;;;;;;;;;;;;;;;;;;;;;
2023/05/30 13:56:42;;;;;;;;;;;;;;;;;;6238921;22;20026;-91
2023/05/30 13:59:10;;;;;;;2.83;1.02;;;;;;;;;;6245989;22;20351;-92
2023/05/30 14:04:32;;;;;;;5.20;1.13;;;;;;;;;;6194392;23;20016;-93
2023/05/30 14:06:59;;;;;;;;;;;;;;;;;;6189187;23;20489;-92
2023/05/30 14:09:28;;;;;;;2.67;0.90;;;;;;;;;;6208232;23;19930;-93
2023/05/30 14:12:06;;;;;;;1.80;0.90;;;;;;;;;;6203292;22;20167;-92
2023/05/30 14:14:34;;;;;;;0.85;0.70;;;;;;;;;;6275029;22;20015;-93
2023/05/30 14:17:02;;;;;;;1.02;0.90;;;;;;;;;;6273769;22;20057;-92
2023/05/30 14:19:29;;;;;;;3.95;1.02;;;;;;;;;;6273734;22;20015;-93
2023/05/30 14:21:59;;;;;;;0.93;0.90;;;;;;;;;;6273103;22;20106;-92
2023/05/30 14:24:25;;;;;;;3.40;0.80;;;;;;;;;;6287032;22;20026;-93
2023/05/30 14:26:51;;;;;;;1.80;1.30;;;;;;;;;;6280214;22;20011;-92
2023/05/30 14:29:21;;;;;;;1.65;0.98;;;;;;;;;;6280657;22;20027;-93
2023/05/30 14:31:48;;;;;;;2.13;1.42;;;;;;;;;;6281420;22;20014;-92
2023/05/30 14:34:14;;;;;;;3.97;1.27;;;;;;;;;;6281584;22;20041;-93
2023/05/30 14:36:41;;;;;;;3.42;1.40;;;;;;;;;;6281634;22;20011;-93
2023/05/30 14:39:08;;;;;;;3.28;1.75;;;;;;;;;;6281588;22;20010;-93
2023/05/30 14:41:35;;;;;;;1.33;1.02;;;;;;;;;;6291753;22;20014;-92
2023/05/30 14:44:05;;;;;;;4.95;1.30;;;;;;;;;;6290139;22;20006;-93
2023/05/30 14:46:31;;;;;;;2.08;1.20;;;;;;;;;;6311933;22;20455;-93
2023/05/30 14:49:08;;;;;;;1.88;1.08;;;;;;;;;;6280530;22;20444;-92
2023/05/30 14:51:50;;;;;;;2.10;1.35;;;;;;;;;;6313673;22;20003;-93
2023/05/30 14:54:17;;;;;;;2.60;1.23;;;;;;;;;;6295646;22;20383;-93
2023/05/30 14:56:59;;;;;;;;;;;;;;;;;;;;;
2023/05/30 14:59:26;;;;;;;4.95;1.33;;;;;;;;;;6341941;22;20022;-93
2023/05/30 15:01:58;;;;;;;4.40;1.30;;;;;;;;;;6314987;22;20006;-93
2023/05/30 15:04:25;;;;;;;2.88;1.40;;;;;;;;;;6289994;22;20023;-92
2023/05/30 15:06:51;;;;;;;5.38;1.25;;;;;;;;;;6317300;22;20006;-92